Terminal Aerodrome Forecast
Issued by NWS

Home | Current Version | Previous Version | Text Only | Print | Product List | Glossary On
Versions: 1 2 3 4 5 6 7 8 9 10 11
000
FTUS46 KHNX 281133
TAFMER
TAF
KMER 281133Z 2812/0112 16004KT P6SM BKN050
     FM281800 VRB05KT P6SM VCSH SCT025 BKN040
      TEMPO 2820/2824 3SM TSRAGS BKN025CB
     FM010400 VRB03KT P6SM BKN040=

USA.gov is the U.S. government's official web portal to all federal, state and local government web resources and services.